sensor_id;sensor_type;location;lat;lon;timestamp;temperature;humidity
16964;DHT22;8598;50.508;10.436;2023-07-08T00:00:14;11.20;99.90
16964;DHT22;8598;50.508;10.436;2023-07-08T00:02:41;11.10;99.90
16964;DHT22;8598;50.508;10.436;2023-07-08T00:05:09;11.00;99.90
16964;DHT22;8598;50.508;10.436;2023-07-08T00:07:36;11.00;99.90
16964;DHT22;8598;50.508;10.436;2023-07-08T00:10:11;10.90;99.90
16964;DHT22;8598;50.508;10.436;2023-07-08T00:12:38;10.80;99.90
16964;DHT22;8598;50.508;10.436;2023-07-08T00:15:06;10.80;99.90
16964;DHT22;8598;50.508;10.436;2023-07-08T00:17:32;10.90;99.90
16964;DHT22;8598;50.508;10.436;2023-07-08T00:19:59;10.80;99.90
16964;DHT22;8598;50.508;10.436;2023-07-08T00:22:25;10.70;99.90
16964;DHT22;8598;50.508;10.436;2023-07-08T00:24:53;10.70;99.90
16964;DHT22;8598;50.508;10.436;2023-07-08T00:27:21;10.70;99.90
16964;DHT22;8598;50.508;10.436;2023-07-08T00:29:48;10.80;99.90
16964;DHT22;8598;50.508;10.436;2023-07-08T00:32:15;10.80;99.90
16964;DHT22;8598;50.508;10.436;2023-07-08T00:34:42;10.70;99.90
16964;DHT22;8598;50.508;10.436;2023-07-08T00:37:11;10.70;99.90
16964;DHT22;8598;50.508;10.436;2023-07-08T00:39:38;10.60;99.90
16964;DHT22;8598;50.508;10.436;2023-07-08T00:42:12;10.60;99.90
16964;DHT22;8598;50.508;10.436;2023-07-08T00:44:42;10.50;99.90
16964;DHT22;8598;50.508;10.436;2023-07-08T00:47:12;10.40;99.90
16964;DHT22;8598;50.508;10.436;2023-07-08T00:49:43;10.30;99.90
16964;DHT22;8598;50.508;10.436;2023-07-08T00:52:16;10.30;99.90
16964;DHT22;8598;50.508;10.436;2023-07-08T00:54:43;10.20;99.90
16964;DHT22;8598;50.508;10.436;2023-07-08T00:57:10;10.10;99.90
16964;DHT22;8598;50.508;10.436;2023-07-08T00:59:40;10.00;99.90
16964;DHT22;8598;50.508;10.436;2023-07-08T01:02:12;10.10;99.90
16964;DHT22;8598;50.508;10.436;2023-07-08T01:04:43;10.10;99.90
16964;DHT22;8598;50.508;10.436;2023-07-08T01:07:12;10.10;99.90
16964;DHT22;8598;50.508;10.436;2023-07-08T01:09:51;10.00;99.90
16964;DHT22;8598;50.508;10.436;2023-07-08T01:12:24;10.00;99.90
16964;DHT22;8598;50.508;10.436;2023-07-08T01:14:52;10.00;99.90
16964;DHT22;8598;50.508;10.436;2023-07-08T01:17:22;9.90;99.90
16964;DHT22;8598;50.508;10.436;2023-07-08T01:19:50;9.90;99.90
16964;DHT22;8598;50.508;10.436;2023-07-08T01:22:22;9.90;99.90
16964;DHT22;8598;50.508;10.436;2023-07-08T01:24:48;9.80;99.90
16964;DHT22;8598;50.508;10.436;2023-07-08T01:27:17;9.70;99.90
16964;DHT22;8598;50.508;10.436;2023-07-08T01:29:45;9.80;99.90
16964;DHT22;8598;50.508;10.436;2023-07-08T01:32:13;9.80;99.90
16964;DHT22;8598;50.508;10.436;2023-07-08T01:34:44;9.80;99.90
16964;DHT22;8598;50.508;10.436;2023-07-08T01:37:29;9.80;99.90
16964;DHT22;8598;50.508;10.436;2023-07-08T01:39:57;9.70;99.90
16964;DHT22;8598;50.508;10.436;2023-07-08T01:42:24;9.80;99.90
16964;DHT22;8598;50.508;10.436;2023-07-08T01:44:51;9.70;99.90
16964;DHT22;8598;50.508;10.436;2023-07-08T01:47:20;9.70;99.90
16964;DHT22;8598;50.508;10.436;2023-07-08T01:49:48;9.60;99.90
16964;DHT22;8598;50.508;10.436;2023-07-08T01:52:16;9.60;99.90
16964;DHT22;8598;50.508;10.436;2023-07-08T01:54:45;9.60;99.90
16964;DHT22;8598;50.508;10.436;2023-07-08T01:57:12;9.70;99.90
16964;DHT22;8598;50.508;10.436;2023-07-08T01:59:38;9.60;99.90
16964;DHT22;8598;50.508;10.436;2023-07-08T02:02:05;9.50;99.90
16964;DHT22;8598;50.508;10.436;2023-07-08T02:04:31;9.40;99.90
16964;DHT22;8598;50.508;10.436;2023-07-08T02:06:59;9.40;99.90
16964;DHT22;8598;50.508;10.436;2023-07-08T02:09:26;9.40;99.90
16964;DHT22;8598;50.508;10.436;2023-07-08T02:11:55;9.30;99.90
16964;DHT22;8598;50.508;10.436;2023-07-08T02:14:22;9.40;99.90
16964;DHT22;8598;50.508;10.436;2023-07-08T02:16:49;9.50;99.90
16964;DHT22;8598;50.508;10.436;2023-07-08T02:19:15;9.50;99.90
16964;DHT22;8598;50.508;10.436;2023-07-08T02:21:42;9.40;99.90
16964;DHT22;8598;50.508;10.436;2023-07-08T02:24:09;9.30;99.90
16964;DHT22;8598;50.508;10.436;2023-07-08T02:26:35;9.10;99.90
16964;DHT22;8598;50.508;10.436;2023-07-08T02:29:03;9.20;99.90
16964;DHT22;8598;50.508;10.436;2023-07-08T02:31:30;9.10;99.90
16964;DHT22;8598;50.508;10.436;2023-07-08T02:33:57;9.10;99.90
16964;DHT22;8598;50.508;10.436;2023-07-08T02:36:23;9.10;99.90
16964;DHT22;8598;50.508;10.436;2023-07-08T02:38:50;9.20;99.90
16964;DHT22;8598;50.508;10.436;2023-07-08T02:41:16;9.20;99.90
16964;DHT22;8598;50.508;10.436;2023-07-08T02:43:43;9.30;99.90
16964;DHT22;8598;50.508;10.436;2023-07-08T02:46:11;9.40;99.90
16964;DHT22;8598;50.508;10.436;2023-07-08T02:48:38;9.40;99.90
16964;DHT22;8598;50.508;10.436;2023-07-08T02:51:05;9.30;99.90
16964;DHT22;8598;50.508;10.436;2023-07-08T02:53:34;9.30;99.90
16964;DHT22;8598;50.508;10.436;2023-07-08T02:56:00;9.20;99.90
16964;DHT22;8598;50.508;10.436;2023-07-08T02:58:27;9.20;99.90
16964;DHT22;8598;50.508;10.436;2023-07-08T03:00:56;9.00;99.90
16964;DHT22;8598;50.508;10.436;2023-07-08T03:03:25;9.00;99.90
16964;DHT22;8598;50.508;10.436;2023-07-08T03:05:55;8.90;99.90
16964;DHT22;8598;50.508;10.436;2023-07-08T03:08:22;9.00;99.90
16964;DHT22;8598;50.508;10.436;2023-07-08T03:10:55;8.90;99.90
16964;DHT22;8598;50.508;10.436;2023-07-08T03:13:22;8.90;99.90
16964;DHT22;8598;50.508;10.436;2023-07-08T03:15:49;8.90;99.90
16964;DHT22;8598;50.508;10.436;2023-07-08T03:18:15;8.90;99.90
16964;DHT22;8598;50.508;10.436;2023-07-08T03:20:44;8.90;99.90
16964;DHT22;8598;50.508;10.436;2023-07-08T03:23:11;9.00;99.90
16964;DHT22;8598;50.508;10.436;2023-07-08T03:25:38;9.10;99.90
16964;DHT22;8598;50.508;10.436;2023-07-08T03:28:05;9.00;99.90
16964;DHT22;8598;50.508;10.436;2023-07-08T03:30:33;8.90;99.90
16964;DHT22;8598;50.508;10.436;2023-07-08T03:33:00;8.80;99.90
16964;DHT22;8598;50.508;10.436;2023-07-08T03:35:26;8.80;99.90
16964;DHT22;8598;50.508;10.436;2023-07-08T03:37:54;9.00;99.90
16964;DHT22;8598;50.508;10.436;2023-07-08T03:40:21;9.10;99.90
16964;DHT22;8598;50.508;10.436;2023-07-08T03:42:47;9.00;99.90
16964;DHT22;8598;50.508;10.436;2023-07-08T03:45:14;9.10;99.90
16964;DHT22;8598;50.508;10.436;2023-07-08T03:47:41;9.10;99.90
16964;DHT22;8598;50.508;10.436;2023-07-08T03:50:14;9.20;99.90
16964;DHT22;8598;50.508;10.436;2023-07-08T03:52:43;9.30;99.90
16964;DHT22;8598;50.508;10.436;2023-07-08T03:55:11;9.20;99.90
16964;DHT22;8598;50.508;10.436;2023-07-08T03:57:38;9.30;99.90
16964;DHT22;8598;50.508;10.436;2023-07-08T04:00:06;9.40;99.90
16964;DHT22;8598;50.508;10.436;2023-07-08T04:02:34;9.30;99.90
16964;DHT22;8598;50.508;10.436;2023-07-08T04:05:01;9.30;99.90
16964;DHT22;8598;50.508;10.436;2023-07-08T04:07:28;9.30;99.90
16964;DHT22;8598;50.508;10.436;2023-07-08T04:09:54;9.20;99.90
16964;DHT22;8598;50.508;10.436;2023-07-08T04:12:22;9.10;99.90
16964;DHT22;8598;50.508;10.436;2023-07-08T04:14:49;9.20;99.90
16964;DHT22;8598;50.508;10.436;2023-07-08T04:17:17;9.20;99.90
16964;DHT22;8598;50.508;10.436;2023-07-08T04:19:44;9.30;99.90
16964;DHT22;8598;50.508;10.436;2023-07-08T04:22:11;9.40;99.90
16964;DHT22;8598;50.508;10.436;2023-07-08T04:24:38;9.50;99.90
16964;DHT22;8598;50.508;10.436;2023-07-08T04:27:05;9.60;99.90
16964;DHT22;8598;50.508;10.436;2023-07-08T04:29:33;9.70;99.90
16964;DHT22;8598;50.508;10.436;2023-07-08T04:32:00;9.80;99.90
16964;DHT22;8598;50.508;10.436;2023-07-08T04:34:27;9.90;99.90
16964;DHT22;8598;50.508;10.436;2023-07-08T04:36:54;9.90;99.90
16964;DHT22;8598;50.508;10.436;2023-07-08T04:39:20;10.10;99.90
16964;DHT22;8598;50.508;10.436;2023-07-08T04:41:47;10.30;99.90
16964;DHT22;8598;50.508;10.436;2023-07-08T04:44:14;10.50;99.90
16964;DHT22;8598;50.508;10.436;2023-07-08T04:46:46;10.50;99.90
16964;DHT22;8598;50.508;10.436;2023-07-08T04:49:14;10.60;99.90
16964;DHT22;8598;50.508;10.436;2023-07-08T04:51:41;10.80;99.90
16964;DHT22;8598;50.508;10.436;2023-07-08T04:54:08;10.90;99.90
16964;DHT22;8598;50.508;10.436;2023-07-08T04:56:36;11.00;99.90
16964;DHT22;8598;50.508;10.436;2023-07-08T04:59:03;11.40;99.90
16964;DHT22;8598;50.508;10.436;2023-07-08T05:01:30;12.00;99.90
16964;DHT22;8598;50.508;10.436;2023-07-08T05:03:59;13.00;99.90
16964;DHT22;8598;50.508;10.436;2023-07-08T05:06:26;14.00;99.90
16964;DHT22;8598;50.508;10.436;2023-07-08T05:08:53;14.30;99.90
16964;DHT22;8598;50.508;10.436;2023-07-08T05:11:20;14.10;99.90
16964;DHT22;8598;50.508;10.436;2023-07-08T05:13:46;14.10;99.90
16964;DHT22;8598;50.508;10.436;2023-07-08T05:16:13;14.30;99.90
16964;DHT22;8598;50.508;10.436;2023-07-08T05:18:40;14.60;99.90
16964;DHT22;8598;50.508;10.436;2023-07-08T05:21:08;14.70;99.90
16964;DHT22;8598;50.508;10.436;2023-07-08T05:23:35;15.40;99.90
16964;DHT22;8598;50.508;10.436;2023-07-08T05:26:03;16.30;99.90
16964;DHT22;8598;50.508;10.436;2023-07-08T05:28:30;17.00;99.90
16964;DHT22;8598;50.508;10.436;2023-07-08T05:30:57;18.40;99.90
16964;DHT22;8598;50.508;10.436;2023-07-08T05:33:24;19.20;99.90
16964;DHT22;8598;50.508;10.436;2023-07-08T05:35:51;19.40;99.90
16964;DHT22;8598;50.508;10.436;2023-07-08T05:38:20;20.00;99.90
16964;DHT22;8598;50.508;10.436;2023-07-08T05:40:48;20.00;99.90
16964;DHT22;8598;50.508;10.436;2023-07-08T05:43:15;20.60;99.90
16964;DHT22;8598;50.508;10.436;2023-07-08T05:45:41;20.70;99.90
16964;DHT22;8598;50.508;10.436;2023-07-08T05:48:08;20.90;99.90
16964;DHT22;8598;50.508;10.436;2023-07-08T05:50:35;20.70;99.90
16964;DHT22;8598;50.508;10.436;2023-07-08T05:53:01;20.90;99.90
16964;DHT22;8598;50.508;10.436;2023-07-08T05:55:31;21.70;99.90
16964;DHT22;8598;50.508;10.436;2023-07-08T05:57:57;21.80;99.90
16964;DHT22;8598;50.508;10.436;2023-07-08T06:00:24;22.20;99.90
16964;DHT22;8598;50.508;10.436;2023-07-08T06:02:50;23.40;99.90
16964;DHT22;8598;50.508;10.436;2023-07-08T06:05:17;22.80;99.90
16964;DHT22;8598;50.508;10.436;2023-07-08T06:07:44;23.30;99.90
16964;DHT22;8598;50.508;10.436;2023-07-08T06:10:10;23.30;99.90
16964;DHT22;8598;50.508;10.436;2023-07-08T06:12:38;24.10;99.90
16964;DHT22;8598;50.508;10.436;2023-07-08T06:15:06;24.00;99.90
16964;DHT22;8598;50.508;10.436;2023-07-08T06:17:32;23.70;99.90
16964;DHT22;8598;50.508;10.436;2023-07-08T06:19:59;24.10;99.90
16964;DHT22;8598;50.508;10.436;2023-07-08T06:22:27;25.00;99.90
16964;DHT22;8598;50.508;10.436;2023-07-08T06:24:53;25.40;99.90
16964;DHT22;8598;50.508;10.436;2023-07-08T06:27:20;26.20;99.90
16964;DHT22;8598;50.508;10.436;2023-07-08T06:29:48;26.30;99.90
16964;DHT22;8598;50.508;10.436;2023-07-08T06:32:15;26.50;99.90
16964;DHT22;8598;50.508;10.436;2023-07-08T06:34:41;26.10;99.90
16964;DHT22;8598;50.508;10.436;2023-07-08T06:37:08;26.50;99.90
16964;DHT22;8598;50.508;10.436;2023-07-08T06:39:35;27.50;99.90
16964;DHT22;8598;50.508;10.436;2023-07-08T06:42:01;27.90;99.90
16964;DHT22;8598;50.508;10.436;2023-07-08T06:44:28;28.10;99.90
16964;DHT22;8598;50.508;10.436;2023-07-08T06:46:56;26.90;99.90
16964;DHT22;8598;50.508;10.436;2023-07-08T06:49:23;26.90;99.90
16964;DHT22;8598;50.508;10.436;2023-07-08T06:51:49;26.40;99.90
16964;DHT22;8598;50.508;10.436;2023-07-08T06:54:16;26.80;99.90
16964;DHT22;8598;50.508;10.436;2023-07-08T06:56:42;27.00;99.90
16964;DHT22;8598;50.508;10.436;2023-07-08T06:59:09;27.40;99.90
16964;DHT22;8598;50.508;10.436;2023-07-08T07:01:36;28.20;99.90
16964;DHT22;8598;50.508;10.436;2023-07-08T07:04:04;29.20;99.90
16964;DHT22;8598;50.508;10.436;2023-07-08T07:06:31;29.10;99.90
16964;DHT22;8598;50.508;10.436;2023-07-08T07:09:00;28.90;99.90
16964;DHT22;8598;50.508;10.436;2023-07-08T07:11:27;29.10;99.90
16964;DHT22;8598;50.508;10.436;2023-07-08T07:13:54;29.20;99.90
16964;DHT22;8598;50.508;10.436;2023-07-08T07:16:20;28.30;99.90
16964;DHT22;8598;50.508;10.436;2023-07-08T07:18:47;28.70;99.90
16964;DHT22;8598;50.508;10.436;2023-07-08T07:21:16;27.80;99.90
16964;DHT22;8598;50.508;10.436;2023-07-08T07:23:43;28.10;99.90
16964;DHT22;8598;50.508;10.436;2023-07-08T07:26:09;28.50;99.90
16964;DHT22;8598;50.508;10.436;2023-07-08T07:28:36;28.70;99.90
16964;DHT22;8598;50.508;10.436;2023-07-08T07:31:03;29.80;99.90
16964;DHT22;8598;50.508;10.436;2023-07-08T07:33:31;30.00;99.90
16964;DHT22;8598;50.508;10.436;2023-07-08T07:35:58;30.30;99.90
16964;DHT22;8598;50.508;10.436;2023-07-08T07:38:26;30.80;99.90
16964;DHT22;8598;50.508;10.436;2023-07-08T07:40:54;30.50;99.90
16964;DHT22;8598;50.508;10.436;2023-07-08T07:43:21;29.10;99.90
16964;DHT22;8598;50.508;10.436;2023-07-08T07:45:50;29.90;99.90
16964;DHT22;8598;50.508;10.436;2023-07-08T07:48:17;30.70;99.90
16964;DHT22;8598;50.508;10.436;2023-07-08T07:50:45;31.00;99.90
16964;DHT22;8598;50.508;10.436;2023-07-08T07:53:12;31.90;99.90
16964;DHT22;8598;50.508;10.436;2023-07-08T07:55:39;31.50;98.20
16964;DHT22;8598;50.508;10.436;2023-07-08T07:58:06;31.50;98.10
16964;DHT22;8598;50.508;10.436;2023-07-08T08:00:33;31.90;98.30
16964;DHT22;8598;50.508;10.436;2023-07-08T08:03:00;31.70;96.10
16964;DHT22;8598;50.508;10.436;2023-07-08T08:05:26;30.80;98.00
16964;DHT22;8598;50.508;10.436;2023-07-08T08:07:53;30.60;97.50
16964;DHT22;8598;50.508;10.436;2023-07-08T08:10:19;29.90;97.80
16964;DHT22;8598;50.508;10.436;2023-07-08T08:12:47;29.70;98.00
16964;DHT22;8598;50.508;10.436;2023-07-08T08:15:16;29.60;98.30
16964;DHT22;8598;50.508;10.436;2023-07-08T08:17:42;29.80;98.10
16964;DHT22;8598;50.508;10.436;2023-07-08T08:20:12;30.50;98.80
16964;DHT22;8598;50.508;10.436;2023-07-08T08:22:39;30.50;99.60
16964;DHT22;8598;50.508;10.436;2023-07-08T08:25:06;30.70;98.20
16964;DHT22;8598;50.508;10.436;2023-07-08T08:27:33;30.30;98.50
16964;DHT22;8598;50.508;10.436;2023-07-08T08:30:01;30.50;98.40
16964;DHT22;8598;50.508;10.436;2023-07-08T08:32:27;30.80;98.50
16964;DHT22;8598;50.508;10.436;2023-07-08T08:34:54;30.70;99.10
16964;DHT22;8598;50.508;10.436;2023-07-08T08:37:21;31.20;98.00
16964;DHT22;8598;50.508;10.436;2023-07-08T08:39:47;31.60;97.70
16964;DHT22;8598;50.508;10.436;2023-07-08T08:42:19;31.60;97.40
16964;DHT22;8598;50.508;10.436;2023-07-08T08:44:46;31.80;96.00
16964;DHT22;8598;50.508;10.436;2023-07-08T08:47:23;31.90;94.90
16964;DHT22;8598;50.508;10.436;2023-07-08T08:49:56;31.80;94.00
16964;DHT22;8598;50.508;10.436;2023-07-08T08:52:23;32.10;92.60
16964;DHT22;8598;50.508;10.436;2023-07-08T08:54:50;32.30;91.90
16964;DHT22;8598;50.508;10.436;2023-07-08T08:57:31;32.30;91.50
16964;DHT22;8598;50.508;10.436;2023-07-08T08:59:59;32.90;92.50
16964;DHT22;8598;50.508;10.436;2023-07-08T09:02:32;33.50;92.70
16964;DHT22;8598;50.508;10.436;2023-07-08T09:05:03;33.00;91.30
16964;DHT22;8598;50.508;10.436;2023-07-08T09:07:39;33.00;91.60
16964;DHT22;8598;50.508;10.436;2023-07-08T09:10:13;32.80;90.00
16964;DHT22;8598;50.508;10.436;2023-07-08T09:12:43;32.80;90.70
16964;DHT22;8598;50.508;10.436;2023-07-08T09:15:12;33.10;90.70
16964;DHT22;8598;50.508;10.436;2023-07-08T09:17:40;33.60;89.50
16964;DHT22;8598;50.508;10.436;2023-07-08T09:20:23;33.30;89.60
16964;DHT22;8598;50.508;10.436;2023-07-08T09:22:57;33.00;88.10
16964;DHT22;8598;50.508;10.436;2023-07-08T09:25:31;32.50;89.40
16964;DHT22;8598;50.508;10.436;2023-07-08T09:27:58;32.40;89.40
16964;DHT22;8598;50.508;10.436;2023-07-08T09:30:25;32.80;88.60
16964;DHT22;8598;50.508;10.436;2023-07-08T09:32:55;32.70;89.00
16964;DHT22;8598;50.508;10.436;2023-07-08T09:35:24;32.50;89.30
16964;DHT22;8598;50.508;10.436;2023-07-08T09:37:52;32.30;89.50
16964;DHT22;8598;50.508;10.436;2023-07-08T09:40:21;32.50;90.30
16964;DHT22;8598;50.508;10.436;2023-07-08T09:42:50;32.30;90.80
16964;DHT22;8598;50.508;10.436;2023-07-08T09:45:19;31.80;89.90
16964;DHT22;8598;50.508;10.436;2023-07-08T09:47:47;31.40;88.20
16964;DHT22;8598;50.508;10.436;2023-07-08T09:50:21;30.90;87.90
16964;DHT22;8598;50.508;10.436;2023-07-08T09:52:48;31.00;90.20
16964;DHT22;8598;50.508;10.436;2023-07-08T09:55:16;31.00;90.40
16964;DHT22;8598;50.508;10.436;2023-07-08T09:57:43;30.70;90.00
16964;DHT22;8598;50.508;10.436;2023-07-08T10:00:12;31.20;89.20
16964;DHT22;8598;50.508;10.436;2023-07-08T10:02:43;31.10;88.00
16964;DHT22;8598;50.508;10.436;2023-07-08T10:05:16;31.10;90.20
16964;DHT22;8598;50.508;10.436;2023-07-08T10:07:46;31.30;87.30
16964;DHT22;8598;50.508;10.436;2023-07-08T10:10:16;31.40;84.30
16964;DHT22;8598;50.508;10.436;2023-07-08T10:12:52;31.10;84.50
16964;DHT22;8598;50.508;10.436;2023-07-08T10:15:24;31.20;88.90
16964;DHT22;8598;50.508;10.436;2023-07-08T10:17:54;31.30;90.00
16964;DHT22;8598;50.508;10.436;2023-07-08T10:20:22;31.90;86.90
16964;DHT22;8598;50.508;10.436;2023-07-08T10:22:59;32.10;87.50
16964;DHT22;8598;50.508;10.436;2023-07-08T10:25:34;32.20;85.00
16964;DHT22;8598;50.508;10.436;2023-07-08T10:28:16;32.10;86.10
16964;DHT22;8598;50.508;10.436;2023-07-08T10:30:53;32.20;85.80
16964;DHT22;8598;50.508;10.436;2023-07-08T10:33:37;32.20;83.90
16964;DHT22;8598;50.508;10.436;2023-07-08T10:36:18;32.00;85.10
16964;DHT22;8598;50.508;10.436;2023-07-08T10:38:57;31.90;86.10
16964;DHT22;8598;50.508;10.436;2023-07-08T10:41:30;31.90;84.10
16964;DHT22;8598;50.508;10.436;2023-07-08T10:44:07;31.90;85.80
16964;DHT22;8598;50.508;10.436;2023-07-08T10:46:45;32.00;86.10
16964;DHT22;8598;50.508;10.436;2023-07-08T10:52:29;31.10;82.20
16964;DHT22;8598;50.508;10.436;2023-07-08T10:55:20;30.80;82.50
16964;DHT22;8598;50.508;10.436;2023-07-08T11:00:49;31.30;82.10
16964;DHT22;8598;50.508;10.436;2023-07-08T11:06:22;31.30;83.90
16964;DHT22;8598;50.508;10.436;2023-07-08T11:08:54;31.20;81.90
16964;DHT22;8598;50.508;10.436;2023-07-08T11:11:30;31.10;83.20
16964;DHT22;8598;50.508;10.436;2023-07-08T11:14:01;31.10;79.50
16964;DHT22;8598;50.508;10.436;2023-07-08T11:16:32;31.30;82.20
16964;DHT22;8598;50.508;10.436;2023-07-08T11:19:05;31.40;82.20
16964;DHT22;8598;50.508;10.436;2023-07-08T11:21:37;31.10;80.80
16964;DHT22;8598;50.508;10.436;2023-07-08T11:24:08;30.90;81.10
16964;DHT22;8598;50.508;10.436;2023-07-08T11:26:42;30.70;82.40
16964;DHT22;8598;50.508;10.436;2023-07-08T11:29:15;30.90;81.20
16964;DHT22;8598;50.508;10.436;2023-07-08T11:31:44;30.90;80.30
16964;DHT22;8598;50.508;10.436;2023-07-08T11:34:13;30.80;80.10
16964;DHT22;8598;50.508;10.436;2023-07-08T11:36:42;31.00;81.30
16964;DHT22;8598;50.508;10.436;2023-07-08T11:39:28;31.00;81.40
16964;DHT22;8598;50.508;10.436;2023-07-08T11:42:11;31.20;80.00
16964;DHT22;8598;50.508;10.436;2023-07-08T11:44:42;31.00;81.00
16964;DHT22;8598;50.508;10.436;2023-07-08T11:47:16;30.80;82.80
16964;DHT22;8598;50.508;10.436;2023-07-08T11:49:47;30.80;80.90
16964;DHT22;8598;50.508;10.436;2023-07-08T11:52:17;30.70;79.40
16964;DHT22;8598;50.508;10.436;2023-07-08T11:54:46;30.80;80.00
16964;DHT22;8598;50.508;10.436;2023-07-08T11:57:23;31.10;79.90
16964;DHT22;8598;50.508;10.436;2023-07-08T12:00:10;31.10;81.90
16964;DHT22;8598;50.508;10.436;2023-07-08T12:02:48;30.80;80.60
16964;DHT22;8598;50.508;10.436;2023-07-08T12:05:15;31.00;80.30
16964;DHT22;8598;50.508;10.436;2023-07-08T12:07:45;30.90;81.70
16964;DHT22;8598;50.508;10.436;2023-07-08T12:10:16;30.90;79.00
16964;DHT22;8598;50.508;10.436;2023-07-08T12:12:45;30.90;81.40
16964;DHT22;8598;50.508;10.436;2023-07-08T12:15:15;31.00;80.70
16964;DHT22;8598;50.508;10.436;2023-07-08T12:17:43;30.80;80.40
16964;DHT22;8598;50.508;10.436;2023-07-08T12:20:21;30.90;82.70
16964;DHT22;8598;50.508;10.436;2023-07-08T12:22:48;31.00;80.20
16964;DHT22;8598;50.508;10.436;2023-07-08T12:25:17;30.80;78.70
16964;DHT22;8598;50.508;10.436;2023-07-08T12:27:46;30.80;81.30
16964;DHT22;8598;50.508;10.436;2023-07-08T12:30:14;31.00;80.90
16964;DHT22;8598;50.508;10.436;2023-07-08T12:32:42;31.00;80.20
16964;DHT22;8598;50.508;10.436;2023-07-08T12:35:18;31.10;80.60
16964;DHT22;8598;50.508;10.436;2023-07-08T12:37:47;31.30;80.30
16964;DHT22;8598;50.508;10.436;2023-07-08T12:40:14;31.10;81.20
16964;DHT22;8598;50.508;10.436;2023-07-08T12:42:41;31.00;81.20
16964;DHT22;8598;50.508;10.436;2023-07-08T12:45:14;31.10;80.90
16964;DHT22;8598;50.508;10.436;2023-07-08T12:47:43;31.30;82.10
16964;DHT22;8598;50.508;10.436;2023-07-08T12:50:10;31.40;81.60
16964;DHT22;8598;50.508;10.436;2023-07-08T12:52:37;31.40;80.80
16964;DHT22;8598;50.508;10.436;2023-07-08T12:55:04;31.40;80.60
16964;DHT22;8598;50.508;10.436;2023-07-08T12:57:31;31.40;80.20
16964;DHT22;8598;50.508;10.436;2023-07-08T12:59:58;31.50;79.20
16964;DHT22;8598;50.508;10.436;2023-07-08T13:02:28;31.40;80.50
16964;DHT22;8598;50.508;10.436;2023-07-08T13:04:59;31.40;80.50
16964;DHT22;8598;50.508;10.436;2023-07-08T13:07:33;31.60;81.10
16964;DHT22;8598;50.508;10.436;2023-07-08T13:10:00;31.40;77.90
16964;DHT22;8598;50.508;10.436;2023-07-08T13:12:28;31.60;79.90
16964;DHT22;8598;50.508;10.436;2023-07-08T13:14:55;31.50;79.10
16964;DHT22;8598;50.508;10.436;2023-07-08T13:17:23;31.60;77.70
16964;DHT22;8598;50.508;10.436;2023-07-08T13:19:52;31.30;76.50
16964;DHT22;8598;50.508;10.436;2023-07-08T13:22:20;31.10;78.80
16964;DHT22;8598;50.508;10.436;2023-07-08T13:24:48;31.30;82.30
16964;DHT22;8598;50.508;10.436;2023-07-08T13:27:21;31.30;78.70
16964;DHT22;8598;50.508;10.436;2023-07-08T13:29:48;31.60;79.00
16964;DHT22;8598;50.508;10.436;2023-07-08T13:32:16;31.70;77.70
16964;DHT22;8598;50.508;10.436;2023-07-08T13:34:43;31.50;79.60
16964;DHT22;8598;50.508;10.436;2023-07-08T13:37:12;31.50;76.90
16964;DHT22;8598;50.508;10.436;2023-07-08T13:39:43;31.30;77.40
16964;DHT22;8598;50.508;10.436;2023-07-08T13:42:11;31.50;78.30
16964;DHT22;8598;50.508;10.436;2023-07-08T13:44:43;31.60;80.00
16964;DHT22;8598;50.508;10.436;2023-07-08T13:47:19;31.60;77.50
16964;DHT22;8598;50.508;10.436;2023-07-08T13:49:49;31.60;76.40
16964;DHT22;8598;50.508;10.436;2023-07-08T13:52:21;31.60;78.00
16964;DHT22;8598;50.508;10.436;2023-07-08T13:54:51;31.40;78.00
16964;DHT22;8598;50.508;10.436;2023-07-08T13:57:21;31.60;78.00
16964;DHT22;8598;50.508;10.436;2023-07-08T13:59:49;31.90;77.40
16964;DHT22;8598;50.508;10.436;2023-07-08T14:02:17;31.90;76.50
16964;DHT22;8598;50.508;10.436;2023-07-08T14:04:45;32.00;75.10
16964;DHT22;8598;50.508;10.436;2023-07-08T14:07:15;31.80;76.00
16964;DHT22;8598;50.508;10.436;2023-07-08T14:09:44;31.80;77.10
16964;DHT22;8598;50.508;10.436;2023-07-08T14:12:10;31.80;77.20
16964;DHT22;8598;50.508;10.436;2023-07-08T14:14:37;31.80;75.20
16964;DHT22;8598;50.508;10.436;2023-07-08T14:17:05;31.90;76.00
16964;DHT22;8598;50.508;10.436;2023-07-08T14:19:34;32.00;79.30
16964;DHT22;8598;50.508;10.436;2023-07-08T14:22:03;32.00;78.20
16964;DHT22;8598;50.508;10.436;2023-07-08T14:24:34;32.10;76.90
16964;DHT22;8598;50.508;10.436;2023-07-08T14:27:02;32.00;75.60
16964;DHT22;8598;50.508;10.436;2023-07-08T14:29:28;31.50;75.40
16964;DHT22;8598;50.508;10.436;2023-07-08T14:31:55;31.20;76.50
16964;DHT22;8598;50.508;10.436;2023-07-08T14:34:24;30.90;77.70
16964;DHT22;8598;50.508;10.436;2023-07-08T14:36:51;30.60;77.80
16964;DHT22;8598;50.508;10.436;2023-07-08T14:39:18;30.60;78.40
16964;DHT22;8598;50.508;10.436;2023-07-08T14:41:47;30.80;79.70
16964;DHT22;8598;50.508;10.436;2023-07-08T14:44:21;30.90;81.10
16964;DHT22;8598;50.508;10.436;2023-07-08T14:46:48;30.90;76.40
16964;DHT22;8598;50.508;10.436;2023-07-08T14:49:18;30.80;76.40
16964;DHT22;8598;50.508;10.436;2023-07-08T14:51:44;30.80;78.60
16964;DHT22;8598;50.508;10.436;2023-07-08T14:54:11;30.80;78.60
16964;DHT22;8598;50.508;10.436;2023-07-08T14:56:38;30.90;80.10
16964;DHT22;8598;50.508;10.436;2023-07-08T14:59:06;31.10;78.50
16964;DHT22;8598;50.508;10.436;2023-07-08T15:01:34;31.20;78.50
16964;DHT22;8598;50.508;10.436;2023-07-08T15:04:00;31.30;78.60
16964;DHT22;8598;50.508;10.436;2023-07-08T15:06:27;31.60;77.70
16964;DHT22;8598;50.508;10.436;2023-07-08T15:08:53;31.60;75.10
16964;DHT22;8598;50.508;10.436;2023-07-08T15:11:20;31.60;75.50
16964;DHT22;8598;50.508;10.436;2023-07-08T15:13:48;31.60;77.90
16964;DHT22;8598;50.508;10.436;2023-07-08T15:16:16;31.50;76.90
16964;DHT22;8598;50.508;10.436;2023-07-08T15:18:44;31.50;78.60
16964;DHT22;8598;50.508;10.436;2023-07-08T15:21:11;31.40;77.20
16964;DHT22;8598;50.508;10.436;2023-07-08T15:23:39;31.60;76.20
16964;DHT22;8598;50.508;10.436;2023-07-08T15:26:09;31.50;76.70
16964;DHT22;8598;50.508;10.436;2023-07-08T15:28:40;31.60;79.60
16964;DHT22;8598;50.508;10.436;2023-07-08T15:31:13;31.80;76.90
16964;DHT22;8598;50.508;10.436;2023-07-08T15:33:40;31.70;77.30
16964;DHT22;8598;50.508;10.436;2023-07-08T15:36:10;31.20;75.40
16964;DHT22;8598;50.508;10.436;2023-07-08T15:38:38;30.90;76.30
16964;DHT22;8598;50.508;10.436;2023-07-08T15:41:05;30.70;81.10
16964;DHT22;8598;50.508;10.436;2023-07-08T15:43:32;30.60;76.00
16964;DHT22;8598;50.508;10.436;2023-07-08T15:46:01;30.70;78.90
16964;DHT22;8598;50.508;10.436;2023-07-08T15:48:28;30.60;80.70
16964;DHT22;8598;50.508;10.436;2023-07-08T15:50:55;30.60;80.00
16964;DHT22;8598;50.508;10.436;2023-07-08T15:53:23;30.70;78.80